Time;durP1;ratioP1;P1;durP2;ratioP2;P2;SDS_P1;SDS_P2;PMS_P1;PMS_P2;Temp;Humidity;BMP_temperature;BMP_pressure;BME280_temperature;BME280_humidity;BME280_pressure;Samples;Min_cycle;Max_cycle;Signal;HPM_P1;HPM_P2
2022/10/14 00:00:02;;;;;;;7.60;6.63;;;15.00;99.90;;;;;;4995244;28;20485;-83
2022/10/14 00:02:35;;;;;;;8.00;7.30;;;15.10;99.90;;;;;;5009040;28;20453;-84
2022/10/14 00:05:03;;;;;;;9.03;6.37;;;15.00;99.90;;;;;;4989631;28;20461;-83
2022/10/14 00:07:33;;;;;;;8.50;6.43;;;15.00;99.90;;;;;;4989323;28;20497;-84
2022/10/14 00:10:07;;;;;;;6.73;5.70;;;15.00;99.90;;;;;;4989260;28;20469;-84
2022/10/14 00:12:35;;;;;;;7.63;6.90;;;15.00;99.90;;;;;;4990083;28;20519;-83
2022/10/14 00:15:03;;;;;;;7.40;6.53;;;15.10;99.90;;;;;;4990600;28;20543;-83
2022/10/14 00:17:30;;;;;;;6.80;6.13;;;15.10;99.90;;;;;;4992340;28;20477;-82
2022/10/14 00:20:00;;;;;;;7.33;6.53;;;15.10;99.90;;;;;;4999099;28;20466;-82
2022/10/14 00:22:32;;;;;;;7.67;6.13;;;15.00;99.90;;;;;;5001030;28;20573;-83
2022/10/14 00:25:02;;;;;;;6.97;6.27;;;15.00;99.90;;;;;;4993405;28;20485;-83
2022/10/14 00:27:29;;;;;;;7.20;5.50;;;14.90;99.90;;;;;;4992368;28;21215;-82
2022/10/14 00:30:01;;;;;;;7.60;6.13;;;15.00;99.90;;;;;;5012416;28;20467;-83
2022/10/14 00:32:34;;;;;;;8.33;6.67;;;14.90;99.90;;;;;;5012337;28;20457;-84
2022/10/14 00:35:09;;;;;;;7.00;6.13;;;14.80;99.90;;;;;;4992958;28;20763;-82
2022/10/14 00:37:38;;;;;;;8.00;6.90;;;15.00;99.90;;;;;;4987440;28;20561;-84
2022/10/14 00:40:08;;;;;;;6.80;6.10;;;14.90;99.90;;;;;;4985634;28;20458;-84
2022/10/14 00:42:36;;;;;;;6.47;5.60;;;14.70;99.90;;;;;;4985201;28;20443;-84
2022/10/14 00:45:15;;;;;;;7.27;6.47;;;14.80;99.90;;;;;;4985796;28;20470;-84
2022/10/14 00:47:44;;;;;;;8.70;6.97;;;14.90;99.90;;;;;;4984798;28;20574;-83
2022/10/14 00:50:12;;;;;;;6.90;6.20;;;15.10;99.90;;;;;;5002310;28;20453;-83
2022/10/14 00:52:43;;;;;;;7.67;6.67;;;15.00;99.90;;;;;;5002167;28;20537;-82
2022/10/14 00:55:19;;;;;;;7.77;6.20;;;15.10;99.90;;;;;;4982329;28;20474;-83
2022/10/14 00:57:49;;;;;;;8.37;5.87;;;15.00;99.90;;;;;;4984614;28;20466;-84
2022/10/14 01:00:21;;;;;;;7.90;7.10;;;15.00;99.90;;;;;;5004117;28;20474;-83
2022/10/14 01:02:51;;;;;;;7.05;6.35;;;14.90;99.90;;;;;;5000891;28;20541;-83
2022/10/14 01:05:19;;;;;;;7.70;6.90;;;14.80;99.90;;;;;;4986491;28;20520;-82
2022/10/14 01:08:08;;;;;;;7.47;6.77;;;14.70;99.90;;;;;;4983991;28;20443;-83
2022/10/14 01:10:43;;;;;;;8.40;7.60;;;14.80;99.90;;;;;;4984577;28;20520;-83
2022/10/14 01:13:39;;;;;;;9.13;7.93;;;14.80;99.90;;;;;;4983933;28;20870;-82
2022/10/14 01:16:20;;;;;;;9.50;7.13;;;14.90;99.90;;;;;;4986120;28;20466;-83
2022/10/14 01:18:57;;;;;;;8.10;7.30;;;14.90;99.90;;;;;;5002574;28;20451;-84
2022/10/14 01:21:45;;;;;;;9.27;7.80;;;14.80;99.90;;;;;;4986550;28;21984;-83
2022/10/14 01:24:39;;;;;;;10.57;8.30;;;14.70;99.90;;;;;;4985850;28;20466;-82
2022/10/14 01:27:37;;;;;;;9.83;7.87;;;14.80;99.90;;;;;;4984942;28;20477;-82
2022/10/14 01:30:20;;;;;;;19.37;8.90;;;14.70;99.90;;;;;;4982948;28;20512;-83
2022/10/14 01:33:25;;;;;;;9.43;7.50;;;14.70;99.90;;;;;;4985757;28;20443;-82
2022/10/14 01:35:58;;;;;;;9.30;7.70;;;14.70;99.90;;;;;;4984812;28;20836;-83
2022/10/14 01:38:39;;;;;;;10.87;8.37;;;14.70;99.90;;;;;;4983739;28;20969;-84
2022/10/14 01:41:24;;;;;;;8.20;7.40;;;14.80;99.90;;;;;;4984527;28;20470;-84
2022/10/14 01:43:53;;;;;;;11.73;8.30;;;14.60;99.90;;;;;;4982520;28;20656;-83
2022/10/14 01:46:23;;;;;;;7.60;6.83;;;14.60;99.90;;;;;;4985540;28;20486;-81
2022/10/14 01:48:54;;;;;;;8.53;7.60;;;14.70;99.90;;;;;;4987353;28;20509;-84
2022/10/14 01:51:44;;;;;;;7.83;6.97;;;14.60;99.90;;;;;;5007253;28;20461;-82
2022/10/14 01:54:33;;;;;;;7.87;7.07;;;14.60;99.90;;;;;;4990204;28;20457;-83
2022/10/14 01:57:06;;;;;;;8.60;7.33;;;14.70;99.90;;;;;;4987163;28;20491;-83
2022/10/14 01:59:37;;;;;;;9.93;6.93;;;14.80;99.90;;;;;;4989540;28;20813;-85
2022/10/14 02:02:08;;;;;;;9.20;7.50;;;14.90;99.90;;;;;;5006474;28;20455;-83
2022/10/14 02:04:35;;;;;;;8.30;6.67;;;14.80;99.90;;;;;;4989280;28;20489;-85
2022/10/14 02:07:08;;;;;;;7.80;7.00;;;14.60;99.90;;;;;;4987677;28;20470;-82
2022/10/14 02:09:55;;;;;;;9.40;7.90;;;14.70;99.90;;;;;;4989492;28;20454;-85
2022/10/14 02:12:43;;;;;;;10.00;7.00;;;14.80;99.90;;;;;;4988527;28;20450;-82
2022/10/14 02:15:45;;;;;;;7.33;6.53;;;14.80;99.90;;;;;;4986700;28;20553;-82
2022/10/14 02:18:30;;;;;;;7.03;6.33;;;14.60;99.90;;;;;;5006884;28;20462;-85
2022/10/14 02:21:11;;;;;;;8.40;7.50;;;14.40;99.90;;;;;;4989763;28;20466;-83
2022/10/14 02:23:46;;;;;;;8.03;7.20;;;14.70;99.90;;;;;;4992019;28;20490;-83
2022/10/14 02:26:16;;;;;;;7.53;6.70;;;14.60;99.90;;;;;;4991405;28;20550;-81
2022/10/14 02:28:45;;;;;;;10.23;7.60;;;14.90;99.90;;;;;;4976090;28;20453;-82
2022/10/14 02:31:15;;;;;;;8.10;6.63;;;15.00;99.90;;;;;;4991311;28;20462;-82
2022/10/14 02:33:46;;;;;;;9.83;6.80;;;14.90;99.90;;;;;;4990838;28;20468;-83
2022/10/14 02:36:21;;;;;;;7.27;6.67;;;14.90;99.90;;;;;;4993244;28;20486;-82
2022/10/14 02:38:52;;;;;;;8.17;7.37;;;14.90;99.90;;;;;;4991394;28;20454;-81
2022/10/14 02:41:28;;;;;;;8.27;6.80;;;14.80;99.90;;;;;;5000305;28;20501;-83
2022/10/14 02:44:00;;;;;;;7.83;6.70;;;14.80;99.90;;;;;;5012841;28;20577;-83
2022/10/14 02:46:30;;;;;;;7.90;6.70;;;14.60;99.90;;;;;;5009947;28;20545;-84
2022/10/14 02:48:57;;;;;;;6.97;6.27;;;14.80;99.90;;;;;;5014924;28;20439;-83
2022/10/14 02:51:25;;;;;;;8.53;6.67;;;14.70;99.90;;;;;;5033836;28;20439;-84
2022/10/14 02:53:56;;;;;;;6.80;6.17;;;14.90;99.90;;;;;;5009515;28;20470;-83
2022/10/14 02:56:24;;;;;;;8.40;6.13;;;14.90;99.90;;;;;;4993574;28;20478;-82
2022/10/14 02:58:55;;;;;;;7.47;6.50;;;14.90;99.90;;;;;;4995226;28;20549;-84
2022/10/14 03:01:22;;;;;;;6.83;5.60;;;14.90;99.90;;;;;;5012210;28;20501;-82
2022/10/14 03:03:49;;;;;;;8.90;6.00;;;14.80;99.90;;;;;;5032249;28;20553;-83
2022/10/14 03:06:20;;;;;;;6.70;5.80;;;14.80;99.90;;;;;;4992470;28;20552;-82
2022/10/14 03:08:49;;;;;;;6.73;6.03;;;14.90;99.90;;;;;;5009079;28;20608;-82
2022/10/14 03:11:19;;;;;;;8.00;5.40;;;14.90;99.90;;;;;;4991031;28;20536;-83
2022/10/14 03:13:49;;;;;;;7.50;5.60;;;14.90;99.90;;;;;;4989374;28;20490;-84
2022/10/14 03:16:16;;;;;;;7.10;5.73;;;14.80;99.90;;;;;;5006052;28;20482;-81
2022/10/14 03:18:50;;;;;;;5.97;5.43;;;14.70;99.90;;;;;;4988476;28;20462;-81
2022/10/14 03:21:20;;;;;;;6.47;5.87;;;14.80;99.90;;;;;;5009330;28;20473;-83
2022/10/14 03:23:49;;;;;;;6.63;5.77;;;15.00;99.90;;;;;;4995772;28;20470;-83
2022/10/14 03:26:31;;;;;;;7.50;6.40;;;14.90;99.90;;;;;;4992539;28;20478;-82
2022/10/14 03:28:58;;;;;;;9.07;6.40;;;14.90;99.90;;;;;;5008360;28;20458;-82
2022/10/14 03:31:29;;;;;;;6.80;6.00;;;14.90;99.90;;;;;;4989732;28;20951;-83
2022/10/14 03:33:56;;;;;;;6.53;5.93;;;14.80;99.90;;;;;;4992183;28;20473;-83
2022/10/14 03:36:23;;;;;;;6.83;6.33;;;14.80;99.90;;;;;;4989632;28;20565;-81
2022/10/14 03:38:54;;;;;;;6.03;5.50;;;14.80;99.90;;;;;;4988801;28;20953;-82
2022/10/14 03:41:23;;;;;;;6.20;5.67;;;15.00;99.90;;;;;;4988999;28;20952;-83
2022/10/14 03:43:51;;;;;;;6.87;6.13;;;15.00;99.90;;;;;;4989776;28;21642;-83
2022/10/14 03:46:22;;;;;;;6.30;5.30;;;14.90;99.90;;;;;;4989901;28;20485;-82
2022/10/14 03:48:55;;;;;;;6.37;5.87;;;15.00;99.90;;;;;;4990865;28;20557;-82
2022/10/14 03:51:22;;;;;;;7.50;6.80;;;15.00;99.90;;;;;;4989003;28;20454;-83
2022/10/14 03:53:50;;;;;;;7.23;5.73;;;15.00;99.90;;;;;;4989650;28;20442;-84
2022/10/14 03:56:27;;;;;;;6.93;6.33;;;15.00;99.90;;;;;;4988258;28;20544;-84
2022/10/14 03:58:55;;;;;;;6.50;5.77;;;14.90;99.90;;;;;;4986990;28;20561;-84
2022/10/14 04:01:27;;;;;;;6.63;5.97;;;15.00;99.90;;;;;;4987841;28;20493;-84
2022/10/14 04:03:55;;;;;;;6.67;6.07;;;15.00;99.90;;;;;;4984869;28;20482;-84
2022/10/14 04:06:27;;;;;;;7.97;6.83;;;15.00;99.90;;;;;;4988003;28;20490;-82
2022/10/14 04:08:55;;;;;;;5.70;5.20;;;14.90;99.90;;;;;;5006243;28;20457;-83
2022/10/14 04:11:22;;;;;;;6.93;6.27;;;14.80;99.90;;;;;;4987895;28;20459;-82
2022/10/14 04:13:49;;;;;;;6.50;5.90;;;14.90;99.90;;;;;;4986144;28;20470;-82
2022/10/14 04:16:21;;;;;;;7.07;6.30;;;14.90;99.90;;;;;;4986621;28;20474;-82
2022/10/14 04:18:52;;;;;;;6.40;5.80;;;15.00;99.90;;;;;;4987183;28;20453;-83
2022/10/14 04:21:22;;;;;;;8.33;5.73;;;15.00;99.90;;;;;;4987704;28;20455;-82
2022/10/14 04:23:50;;;;;;;5.73;5.23;;;15.10;99.90;;;;;;5004780;28;20466;-84
2022/10/14 04:26:20;;;;;;;7.50;5.97;;;15.10;99.90;;;;;;4987042;28;20561;-83
2022/10/14 04:28:52;;;;;;;6.70;6.00;;;15.10;99.90;;;;;;4987458;28;20462;-83
2022/10/14 04:31:21;;;;;;;5.77;5.07;;;15.20;99.90;;;;;;4987097;28;20526;-82
2022/10/14 04:33:49;;;;;;;6.80;5.83;;;15.10;99.90;;;;;;4991515;28;20454;-82
2022/10/14 04:36:19;;;;;;;7.40;5.70;;;15.00;99.90;;;;;;4993042;28;20462;-82
2022/10/14 04:38:49;;;;;;;6.70;5.60;;;15.00;99.90;;;;;;4993467;28;20446;-84
2022/10/14 04:41:22;;;;;;;6.30;5.27;;;15.20;99.90;;;;;;4994151;28;20451;-83
2022/10/14 04:43:52;;;;;;;6.70;6.00;;;15.20;99.90;;;;;;4991370;28;20480;-85
2022/10/14 04:46:24;;;;;;;7.70;5.33;;;15.20;99.90;;;;;;4986943;28;20492;-83
2022/10/14 04:48:56;;;;;;;11.03;5.80;;;15.20;99.90;;;;;;4986155;28;20505;-84
2022/10/14 04:51:26;;;;;;;5.67;5.10;;;15.20;99.90;;;;;;4986970;28;20534;-85
2022/10/14 04:53:56;;;;;;;5.83;5.33;;;15.40;99.90;;;;;;4990535;28;20454;-82
2022/10/14 04:56:29;;;;;;;5.93;5.33;;;15.30;99.90;;;;;;4987925;28;20540;-82
2022/10/14 04:59:00;;;;;;;5.03;4.50;;;15.40;99.90;;;;;;4985820;28;20477;-82
2022/10/14 05:01:29;;;;;;;8.93;8.13;;;15.30;99.90;;;;;;4986916;28;20498;-82
2022/10/14 05:04:02;;;;;;;4.80;4.40;;;15.30;99.90;;;;;;4988840;28;20450;-84
2022/10/14 05:06:29;;;;;;;5.07;4.57;;;15.30;99.90;;;;;;4986596;28;20470;-85
2022/10/14 05:08:59;;;;;;;5.77;4.53;;;15.30;99.90;;;;;;4988845;28;20983;-83
2022/10/14 05:11:27;;;;;;;5.27;4.70;;;15.30;99.90;;;;;;4988080;28;20466;-85
2022/10/14 05:13:58;;;;;;;4.90;4.50;;;15.20;99.90;;;;;;4987201;28;20455;-84
2022/10/14 05:16:26;;;;;;;5.67;4.30;;;15.30;99.90;;;;;;4988513;28;20470;-82
2022/10/14 05:18:56;;;;;;;5.93;5.43;;;15.30;99.90;;;;;;4989323;28;20477;-83
2022/10/14 05:21:23;;;;;;;5.60;5.10;;;15.30;99.90;;;;;;4989653;28;20465;-83
2022/10/14 05:23:51;;;;;;;5.07;4.67;;;15.30;99.90;;;;;;4995377;28;20450;-80
2022/10/14 05:26:22;;;;;;;4.50;4.07;;;15.30;99.90;;;;;;4995195;28;20494;-82
2022/10/14 05:28:54;;;;;;;4.73;4.30;;;15.20;99.90;;;;;;5013636;28;20454;-83
2022/10/14 05:31:32;;;;;;;5.00;4.53;;;15.00;99.90;;;;;;4996505;28;20541;-82
2022/10/14 05:33:59;;;;;;;5.60;5.10;;;14.90;99.90;;;;;;5003200;28;20449;-83
2022/10/14 05:36:29;;;;;;;5.03;4.50;;;15.00;99.90;;;;;;5014088;28;20554;-84
2022/10/14 05:39:00;;;;;;;5.33;4.67;;;15.10;99.90;;;;;;5030415;28;20446;-85
2022/10/14 05:41:27;;;;;;;5.40;4.90;;;15.10;99.90;;;;;;4995454;28;20539;-83
2022/10/14 05:43:54;;;;;;;5.33;4.70;;;15.10;99.90;;;;;;4993030;28;20461;-83
2022/10/14 05:46:21;;;;;;;9.50;4.47;;;15.10;99.90;;;;;;4989811;28;20494;-80
2022/10/14 05:48:49;;;;;;;4.90;4.50;;;15.20;99.90;;;;;;4990039;28;20472;-82
2022/10/14 05:51:21;;;;;;;4.70;4.30;;;15.00;99.90;;;;;;5010263;28;20447;-84
2022/10/14 05:53:51;;;;;;;5.70;4.90;;;15.00;99.90;;;;;;4992938;28;20929;-83
2022/10/14 05:56:22;;;;;;;5.27;4.67;;;15.10;99.90;;;;;;5009142;28;20570;-84
2022/10/14 05:58:49;;;;;;;4.90;4.07;;;15.10;99.90;;;;;;4994404;28;20469;-83
2022/10/14 06:01:16;;;;;;;5.10;4.40;;;15.00;99.90;;;;;;4991961;28;20451;-83
2022/10/14 06:03:44;;;;;;;4.97;4.57;;;15.00;99.90;;;;;;4992875;28;20478;-82
2022/10/14 06:06:18;;;;;;;4.33;3.73;;;14.90;99.90;;;;;;5010821;28;20492;-82
2022/10/14 06:08:51;;;;;;;6.73;6.13;;;15.10;99.90;;;;;;4994333;28;20974;-83
2022/10/14 06:11:24;;;;;;;5.23;4.60;;;15.10;99.90;;;;;;4995583;28;20462;-83
2022/10/14 06:13:53;;;;;;;5.10;4.10;;;15.10;99.90;;;;;;5000814;28;20501;-82
2022/10/14 06:16:23;;;;;;;5.60;4.47;;;15.20;99.90;;;;;;5005316;28;20521;-83
2022/10/14 06:18:50;;;;;;;5.47;4.90;;;15.10;99.90;;;;;;5006945;28;20509;-84
2022/10/14 06:21:21;;;;;;;5.83;4.40;;;15.20;99.90;;;;;;5013601;28;20450;-84
2022/10/14 06:23:54;;;;;;;5.50;4.80;;;15.10;99.90;;;;;;5032633;28;20434;-82
2022/10/14 06:26:27;;;;;;;4.87;4.47;;;15.20;99.90;;;;;;5013904;28;20486;-84
2022/10/14 06:28:59;;;;;;;5.63;4.67;;;15.20;99.90;;;;;;5015030;28;20442;-84
2022/10/14 06:31:31;;;;;;;5.57;4.40;;;15.10;99.90;;;;;;5015591;28;20485;-83
2022/10/14 06:34:07;;;;;;;6.60;5.03;;;15.10;99.90;;;;;;5013472;28;20534;-85
2022/10/14 06:36:41;;;;;;;7.00;3.93;;;15.10;99.90;;;;;;5011192;28;20504;-84
2022/10/14 06:39:14;;;;;;;6.80;4.57;;;15.10;99.90;;;;;;4999645;28;20531;-84
2022/10/14 06:41:48;;;;;;;6.53;4.20;;;15.00;99.90;;;;;;4997188;28;20450;-84
2022/10/14 06:44:27;;;;;;;5.00;4.50;;;15.10;99.90;;;;;;4994039;28;20508;-83
2022/10/14 06:47:13;;;;;;;5.10;4.40;;;14.90;99.90;;;;;;4999263;28;20496;-84
2022/10/14 06:49:46;;;;;;;7.33;4.90;;;15.10;99.90;;;;;;5006933;28;20458;-85
2022/10/14 06:52:13;;;;;;;4.80;4.30;;;15.00;99.90;;;;;;5013169;28;20433;-84
2022/10/14 06:54:53;;;;;;;5.50;5.00;;;14.90;99.90;;;;;;5012367;28;20450;-86
2022/10/14 06:57:34;;;;;;;5.53;4.60;;;14.80;99.90;;;;;;5002138;28;20522;-82
2022/10/14 07:00:15;;;;;;;4.73;4.07;;;14.70;99.90;;;;;;4995455;28;20556;-84
2022/10/14 07:02:52;;;;;;;5.33;4.20;;;14.90;99.90;;;;;;4995310;28;20450;-84
2022/10/14 07:05:28;;;;;;;6.50;4.43;;;14.90;99.90;;;;;;4994803;28;20482;-85
2022/10/14 07:08:06;;;;;;;5.90;5.20;;;14.90;99.90;;;;;;4994082;28;20450;-82
2022/10/14 07:10:39;;;;;;;7.17;5.17;;;14.90;99.90;;;;;;4993165;28;20470;-83
2022/10/14 07:13:15;;;;;;;4.87;4.37;;;14.90;99.90;;;;;;4991453;28;20987;-82
2022/10/14 07:15:51;;;;;;;7.50;5.60;;;15.00;99.90;;;;;;4993521;28;20494;-82
2022/10/14 07:18:42;;;;;;;5.53;5.00;;;14.90;99.90;;;;;;5009313;28;20457;-82
2022/10/14 07:21:24;;;;;;;5.47;4.97;;;14.90;99.90;;;;;;4991036;28;20474;-85
2022/10/14 07:24:22;;;;;;;6.37;4.80;;;14.90;99.90;;;;;;5009278;28;20488;-84
2022/10/14 07:27:38;;;;;;;8.93;4.90;;;15.00;99.90;;;;;;4999440;28;20501;-83
2022/10/14 07:30:22;;;;;;;5.97;5.03;;;15.10;99.90;;;;;;4964103;28;20439;-84
2022/10/14 07:33:02;;;;;;;7.03;5.50;;;15.20;99.90;;;;;;4994804;28;20559;-84
2022/10/14 07:35:37;;;;;;;7.93;5.93;;;15.10;99.90;;;;;;4995469;28;20477;-84
2022/10/14 07:38:12;;;;;;;8.53;5.80;;;15.00;99.90;;;;;;5009970;28;20526;-84
2022/10/14 07:40:49;;;;;;;5.63;5.07;;;14.90;99.90;;;;;;4994796;28;20528;-82
2022/10/14 07:43:22;;;;;;;8.67;4.40;;;14.90;99.90;;;;;;4995050;28;20992;-84
2022/10/14 07:46:01;;;;;;;4.70;4.30;;;14.90;99.90;;;;;;4993334;28;20522;-84
2022/10/14 07:48:33;;;;;;;5.70;5.10;;;15.20;99.90;;;;;;4994238;28;20538;-82
2022/10/14 07:51:18;;;;;;;5.93;5.43;;;15.10;99.90;;;;;;4991999;28;20504;-82
2022/10/14 07:53:44;;;;;;;5.70;5.10;;;15.10;99.90;;;;;;5005684;28;21293;-83
2022/10/14 07:56:11;;;;;;;6.13;4.87;;;14.90;99.90;;;;;;4990985;28;20525;-84
2022/10/14 07:58:40;;;;;;;5.77;5.27;;;15.10;99.90;;;;;;5003955;28;20477;-84
2022/10/14 08:01:14;;;;;;;7.27;5.40;;;15.00;99.90;;;;;;5007779;28;20470;-83
2022/10/14 08:03:47;;;;;;;5.50;5.00;;;15.10;99.90;;;;;;4990269;28;21064;-83
2022/10/14 08:06:15;;;;;;;5.47;4.97;;;15.20;99.90;;;;;;5008684;28;20494;-83
2022/10/14 08:08:42;;;;;;;7.67;5.13;;;15.30;99.90;;;;;;5008261;28;20476;-83
2022/10/14 08:11:13;;;;;;;6.60;5.00;;;15.40;99.90;;;;;;5009482;28;20438;-84
2022/10/14 08:13:40;;;;;;;7.30;5.97;;;15.30;99.90;;;;;;5026651;28;21284;-83
2022/10/14 08:16:16;;;;;;;6.20;5.70;;;15.30;99.90;;;;;;5011459;28;20466;-81
2022/10/14 08:18:44;;;;;;;5.47;4.83;;;15.40;99.90;;;;;;5019935;28;20481;-84
2022/10/14 08:21:12;;;;;;;4.97;4.57;;;15.40;99.90;;;;;;4995145;28;20447;-83
2022/10/14 08:23:42;;;;;;;6.50;4.93;;;15.40;99.90;;;;;;5006539;28;20458;-83
2022/10/14 08:26:22;;;;;;;5.53;5.03;;;15.50;99.90;;;;;;5005539;28;21130;-82
2022/10/14 08:28:50;;;;;;;5.43;4.67;;;15.60;99.90;;;;;;5003264;28;20960;-83
2022/10/14 08:31:18;;;;;;;5.20;4.70;;;15.60;99.90;;;;;;5010981;28;20793;-83
2022/10/14 08:33:46;;;;;;;5.87;4.97;;;15.60;99.90;;;;;;4999935;28;20446;-83
2022/10/14 08:36:14;;;;;;;6.20;4.97;;;15.60;99.90;;;;;;4989658;28;20483;-82
2022/10/14 08:38:44;;;;;;;6.50;4.50;;;15.60;99.90;;;;;;5006750;28;20460;-83
2022/10/14 08:41:30;;;;;;;9.33;5.63;;;15.70;99.90;;;;;;5021034;28;20461;-84
2022/10/14 08:44:26;;;;;;;5.10;4.57;;;15.80;99.90;;;;;;4998515;28;20465;-83
2022/10/14 08:47:08;;;;;;;5.53;4.60;;;15.60;99.90;;;;;;5011797;28;20486;-83
2022/10/14 08:50:05;;;;;;;5.27;4.73;;;15.70;99.90;;;;;;4990062;28;20449;-83
2022/10/14 08:52:41;;;;;;;7.50;5.10;;;15.50;99.90;;;;;;5002426;28;20458;-82
2022/10/14 08:55:49;;;;;;;5.07;4.53;;;15.80;99.90;;;;;;5003828;28;20497;-82
2022/10/14 08:58:37;;;;;;;6.97;5.27;;;15.70;99.90;;;;;;5020684;28;20469;-82
2022/10/14 09:01:30;;;;;;;4.70;4.20;;;15.80;99.90;;;;;;5004915;28;20951;-80
2022/10/14 09:04:21;;;;;;;8.70;5.30;;;15.90;99.90;;;;;;5000887;28;20485;-82
2022/10/14 09:06:55;;;;;;;5.10;4.53;;;15.80;99.90;;;;;;5000611;28;20572;-83
2022/10/14 09:09:48;;;;;;;6.97;5.03;;;16.00;99.90;;;;;;4983971;28;20936;-82
2022/10/14 09:12:35;;;;;;;5.83;4.93;;;16.00;99.90;;;;;;4988196;28;20455;-83
2022/10/14 09:15:42;;;;;;;4.73;4.10;;;16.10;99.90;;;;;;5014106;28;20445;-83
2022/10/14 09:18:52;;;;;;;6.77;5.00;;;16.00;99.90;;;;;;4994206;28;20830;-82
2022/10/14 09:21:52;;;;;;;5.23;4.70;;;16.10;99.90;;;;;;5005745;28;20451;-82
2022/10/14 09:24:40;;;;;;;7.03;5.90;;;16.30;99.90;;;;;;5000059;28;20442;-81
2022/10/14 09:27:27;;;;;;;11.80;5.23;;;16.40;99.90;;;;;;4998926;28;20482;-82
2022/10/14 09:30:09;;;;;;;6.37;5.20;;;16.20;99.90;;;;;;4987577;28;20459;-82
2022/10/14 09:32:49;;;;;;;6.70;5.30;;;16.30;99.90;;;;;;5017674;28;20504;-82
2022/10/14 09:38:19;;;;;;;6.30;4.67;;;16.30;99.90;;;;;;5035578;28;20476;-82
2022/10/14 09:41:05;;;;;;;9.00;5.10;;;16.30;99.90;;;;;;5032576;28;20446;-83
2022/10/14 09:44:20;;;;;;;8.07;5.03;;;16.50;99.90;;;;;;5034148;28;20445;-84
2022/10/14 09:47:04;;;;;;;6.40;5.33;;;16.40;99.90;;;;;;5020037;28;20482;-84
2022/10/14 09:49:48;;;;;;;9.33;5.60;;;16.40;99.90;;;;;;5024376;28;20450;-82
2022/10/14 09:52:32;;;;;;;6.63;4.77;;;16.40;99.90;;;;;;5035899;28;20511;-83
2022/10/14 09:55:10;;;;;;;5.70;5.17;;;16.60;99.90;;;;;;5035050;28;20556;-84
2022/10/14 09:58:08;;;;;;;6.27;5.13;;;16.80;99.90;;;;;;5023609;28;20449;-83
2022/10/14 10:00:41;;;;;;;6.13;5.27;;;16.70;99.90;;;;;;5033566;28;20870;-83
2022/10/14 10:03:36;;;;;;;8.77;4.93;;;16.70;99.90;;;;;;5039311;28;20458;-82
2022/10/14 10:06:21;;;;;;;7.63;5.07;;;16.80;99.90;;;;;;5042623;28;20520;-80
2022/10/14 10:09:14;;;;;;;;;;;;;;;;;;;;;
2022/10/14 10:12:22;;;;;;;6.93;6.00;;;17.00;99.90;;;;;;5042609;28;20453;-83
2022/10/14 10:15:14;;;;;;;;;;;;;;;;;;;;;
2022/10/14 10:18:30;;;;;;;6.30;5.33;;;17.00;99.90;;;;;;5029969;28;20465;-83
2022/10/14 10:21:43;;;;;;;5.27;4.77;;;16.80;99.90;;;;;;5025418;28;20438;-82
2022/10/14 10:24:33;;;;;;;6.23;5.50;;;16.80;99.90;;;;;;5042154;28;20548;-81
2022/10/14 10:27:35;;;;;;;7.10;5.93;;;17.00;99.90;;;;;;5033777;28;20488;-82
2022/10/14 10:30:26;;;;;;;10.13;6.07;;;16.90;99.90;;;;;;5037046;28;20458;-83
2022/10/14 10:34:07;;;;;;;10.23;5.43;;;16.80;99.90;;;;;;5039463;28;20449;-82
2022/10/14 10:37:16;;;;;;;6.20;5.60;;;17.00;99.90;;;;;;4951047;29;20557;-82
2022/10/14 10:40:13;;;;;;;6.67;5.57;;;17.20;99.90;;;;;;5025046;28;20438;-82
2022/10/14 10:43:06;;;;;;;5.90;5.17;;;17.10;99.90;;;;;;5046413;28;20456;-81
2022/10/14 10:46:50;;;;;;;8.33;6.93;;;16.80;99.90;;;;;;5053825;28;20480;-80
2022/10/14 10:50:00;;;;;;;9.83;5.40;;;16.90;99.90;;;;;;5023271;28;20457;-84
2022/10/14 10:52:58;;;;;;;8.50;6.20;;;17.00;99.90;;;;;;5048051;28;20433;-84
2022/10/14 10:56:11;;;;;;;;;;;;;;;;;;;;;
2022/10/14 10:59:42;;;;;;;8.73;6.77;;;17.30;99.90;;;;;;5054719;28;20592;-82
2022/10/14 11:02:38;;;;;;;10.57;7.30;;;17.20;99.90;;;;;;5042115;28;20448;-82
2022/10/14 11:05:36;;;;;;;7.30;6.43;;;17.10;99.90;;;;;;5021982;28;20529;-80
2022/10/14 11:12:13;;;;;;;9.50;6.53;;;17.10;99.90;;;;;;4987715;28;20451;-82
2022/10/14 11:19:24;;;;;;;7.40;6.70;;;16.80;99.90;;;;;;4970529;28;20531;-82
2022/10/14 11:22:27;;;;;;;8.90;7.07;;;16.80;99.90;;;;;;4962532;28;20970;-83
2022/10/14 11:25:21;;;;;;;9.13;7.60;;;17.10;99.90;;;;;;4958439;28;20464;-80
2022/10/14 11:28:16;;;;;;;9.63;7.57;;;17.00;99.90;;;;;;4964766;28;20459;-82
2022/10/14 11:35:09;;;;;;;9.07;7.70;;;16.80;99.90;;;;;;5036159;28;20457;-84
2022/10/14 11:38:33;;;;;;;9.07;7.43;;;16.90;99.90;;;;;;5037066;28;20488;-82
2022/10/14 11:41:16;;;;;;;12.70;7.87;;;16.90;99.90;;;;;;5032334;28;20468;-82
2022/10/14 11:44:06;;;;;;;8.87;7.97;;;16.60;99.90;;;;;;5036942;28;20485;-81
2022/10/14 11:46:47;;;;;;;8.97;7.23;;;16.60;99.90;;;;;;5039063;23;20498;-82
2022/10/14 11:49:50;;;;;;;10.90;7.23;;;17.00;99.90;;;;;;4998240;28;20944;-82
2022/10/14 11:52:53;;;;;;;8.40;7.50;;;17.00;99.90;;;;;;4990206;28;20500;-82
2022/10/14 11:55:52;;;;;;;11.33;7.30;;;16.80;99.90;;;;;;4991373;28;20462;-82
2022/10/14 12:02:29;;;;;;;8.43;6.73;;;16.90;99.90;;;;;;5011630;28;20477;-81
2022/10/14 12:05:31;;;;;;;7.77;6.70;;;16.90;99.90;;;;;;5010377;28;20450;-82
2022/10/14 12:08:55;;;;;;;9.57;7.90;;;17.20;99.90;;;;;;5004499;28;20505;-82
2022/10/14 12:12:05;;;;;;;12.43;8.07;;;17.20;99.90;;;;;;5009019;28;20453;-83
2022/10/14 12:15:08;;;;;;;6.90;5.83;;;17.10;99.90;;;;;;5011107;28;20458;-82
2022/10/14 12:18:22;;;;;;;8.93;7.57;;;16.90;99.90;;;;;;5005379;28;20483;-83
2022/10/14 12:20:59;;;;;;;8.90;5.97;;;17.20;99.90;;;;;;4997182;28;20465;-83
2022/10/14 12:24:09;;;;;;;8.93;7.00;;;17.00;99.90;;;;;;4997724;28;20454;-83
2022/10/14 12:27:12;;;;;;;11.97;7.57;;;17.10;99.90;;;;;;5007220;28;21078;-83
2022/10/14 12:30:02;;;;;;;7.43;6.57;;;17.10;99.90;;;;;;4992916;28;20458;-84
2022/10/14 12:33:11;;;;;;;6.43;5.80;;;16.90;99.90;;;;;;4994480;28;20460;-82
2022/10/14 12:36:26;;;;;;;10.47;6.63;;;16.90;99.90;;;;;;4985435;28;20545;-83
2022/10/14 12:39:33;;;;;;;8.07;7.10;;;17.00;99.90;;;;;;4995343;28;20521;-83
2022/10/14 12:42:17;;;;;;;7.53;6.60;;;17.20;99.90;;;;;;4995459;28;20945;-84
2022/10/14 12:45:06;;;;;;;7.40;6.63;;;17.10;99.90;;;;;;4993964;28;20486;-82
2022/10/14 12:48:51;;;;;;;;;;;;;;;;;;;;;
2022/10/14 12:52:34;;;;;;;8.00;6.13;;;16.80;99.90;;;;;;4924946;29;20552;-83
2022/10/14 12:55:20;;;;;;;8.37;7.03;;;16.60;99.90;;;;;;4911001;29;20566;-81
2022/10/14 12:58:02;;;;;;;7.67;6.47;;;16.40;99.90;;;;;;4923304;29;20482;-83
2022/10/14 13:00:36;;;;;;;7.60;6.80;;;17.00;99.90;;;;;;4984509;28;21194;-83
2022/10/14 13:03:15;;;;;;;7.97;7.10;;;17.10;99.90;;;;;;5006184;28;20453;-81
2022/10/14 13:05:44;;;;;;;8.00;6.90;;;17.20;99.90;;;;;;5007110;28;20612;-82
2022/10/14 13:08:19;;;;;;;10.63;8.70;;;17.10;99.90;;;;;;5005751;28;20476;-84
2022/10/14 13:10:53;;;;;;;7.27;6.57;;;17.10;99.90;;;;;;4987877;28;20533;-83
2022/10/14 13:13:40;;;;;;;7.37;6.67;;;17.30;99.90;;;;;;4990279;28;20990;-84
2022/10/14 13:16:30;;;;;;;8.23;6.90;;;17.20;99.90;;;;;;5004632;28;20468;-84
2022/10/14 13:19:32;;;;;;;10.73;6.47;;;17.20;99.90;;;;;;4983539;28;20485;-83
2022/10/14 13:22:01;;;;;;;7.40;6.70;;;17.20;99.90;;;;;;5002117;28;20467;-82
2022/10/14 13:24:37;;;;;;;6.83;6.07;;;17.10;99.90;;;;;;4992820;28;20501;-82
2022/10/14 13:39:06;;;;;;;7.03;5.97;;;17.30;99.90;;;;;;4895421;29;20447;-84
2022/10/14 13:42:29;;;;;;;;;;;;;;;;;;;;;
2022/10/14 14:10:02;;;;;;;6.07;5.57;;;17.20;99.90;;;;;;3059019;23;20556;-83
2022/10/14 14:20:36;;;;;;;6.00;5.23;;;17.40;99.90;;;;;;4933861;28;20454;-82
2022/10/14 14:27:54;;;;;;;6.00;5.40;;;17.40;99.90;;;;;;4847791;29;20485;-83
2022/10/14 14:31:35;;;;;;;;;;;;;;;;;;;;;
2022/10/14 14:45:19;;;;;;;;;;;;;;;;;;;;;
2022/10/14 14:52:11;;;;;;;;;;;;;;;;;;;;;
2022/10/14 14:59:50;;;;;;;;;;;;;;;;;;;;;
2022/10/14 15:09:40;;;;;;;7.80;6.17;;;17.70;99.90;;;;;;5038056;26;20507;-83
2022/10/14 15:13:17;;;;;;;6.33;5.73;;;17.40;99.90;;;;;;5044110;28;20449;-82
2022/10/14 15:16:37;;;;;;;7.87;5.30;;;17.10;99.90;;;;;;5010458;28;20466;-83
2022/10/14 15:20:21;;;;;;;;;;;;;;;;;;;;;
2022/10/14 15:31:57;;;;;;;5.70;5.20;;;17.60;99.90;;;;;;4953762;28;20490;-83
2022/10/14 15:42:43;;;;;;;6.37;5.77;;;17.80;99.90;;;;;;4857061;29;20453;-83
2022/10/14 15:54:14;;;;;;;9.40;6.40;;;17.40;99.90;;;;;;4907296;29;20522;-84
2022/10/14 15:58:03;;;;;;;6.07;5.50;;;17.50;99.90;;;;;;4923984;29;20450;-83
2022/10/14 16:01:25;;;;;;;5.40;4.90;;;17.70;99.90;;;;;;4906973;29;20428;-83
2022/10/14 16:04:58;;;;;;;6.00;5.50;;;17.80;99.90;;;;;;4882216;29;20443;-84
2022/10/14 16:13:10;;;;;;;;;;;;;;;;;;;;;
2022/10/14 16:16:52;;;;;;;;;;;;;;;;;;;;;
2022/10/14 16:20:18;;;;;;;4.83;4.33;;;17.60;99.90;;;;;;4886621;29;20471;-84
2022/10/14 16:27:56;;;;;;;;;;;;;;;;;;;;;